Time;durP1;ratioP1;P1;durP2;ratioP2;P2;SDS_P1;SDS_P2;PMS_P1;PMS_P2;Temp;Humidity;BMP_temperature;BMP_pressure;BME280_temperature;BME280_humidity;BME280_pressure;Samples;Min_cycle;Max_cycle;Signal;HPM_P1;HPM_P2
2023/11/12 00:00:36;;;;;;;209.82;53.33;;;;;;;;;;5021870;28;20771;-44
2023/11/12 00:03:02;;;;;;;209.57;53.88;;;;;;;;;;5020429;28;20247;-44
2023/11/12 00:05:28;;;;;;;211.45;53.60;;;;;;;;;;5021370;28;20186;-43
2023/11/12 00:07:54;;;;;;;211.60;53.88;;;;;;;;;;5019517;28;20172;-44
2023/11/12 00:10:20;;;;;;;209.43;53.10;;;;;;;;;;5021241;28;20662;-44
2023/11/12 00:12:46;;;;;;;209.27;52.70;;;;;;;;;;5029530;28;20192;-44
2023/11/12 00:15:12;;;;;;;208.37;52.10;;;;;;;;;;5012048;28;20797;-44
2023/11/12 00:17:42;;;;;;;208.93;53.10;;;;;;;;;;5018748;28;20563;-44
2023/11/12 00:20:12;;;;;;;209.40;54.47;;;;;;;;;;5024991;28;20495;-44
2023/11/12 00:22:38;;;;;;;210.88;54.83;;;;;;;;;;5022259;28;20197;-44
2023/11/12 00:25:04;;;;;;;211.80;53.97;;;;;;;;;;5019716;28;20658;-44
2023/11/12 00:27:30;;;;;;;215.25;57.92;;;;;;;;;;5019363;28;20206;-43
2023/11/12 00:29:56;;;;;;;208.90;52.90;;;;;;;;;;5020758;28;20542;-44
2023/11/12 00:32:23;;;;;;;211.60;54.90;;;;;;;;;;5019430;28;20827;-44
2023/11/12 00:34:49;;;;;;;209.38;52.97;;;;;;;;;;5024118;28;20404;-44
2023/11/12 00:37:15;;;;;;;211.00;54.67;;;;;;;;;;5018976;28;20268;-44
2023/11/12 00:39:41;;;;;;;208.77;52.17;;;;;;;;;;5020358;28;20185;-44
2023/11/12 00:42:08;;;;;;;213.32;56.35;;;;;;;;;;5020774;28;20417;-43
2023/11/12 00:44:35;;;;;;;207.70;52.55;;;;;;;;;;5019810;28;20637;-43
2023/11/12 00:47:01;;;;;;;210.30;53.42;;;;;;;;;;5019162;28;20212;-43
2023/11/12 00:49:27;;;;;;;209.23;54.50;;;;;;;;;;5019554;28;20202;-44
2023/11/12 00:51:53;;;;;;;208.30;53.50;;;;;;;;;;5026453;28;20257;-44
2023/11/12 00:54:19;;;;;;;210.37;54.13;;;;;;;;;;5021733;28;20550;-44
2023/11/12 00:56:45;;;;;;;210.93;54.70;;;;;;;;;;5021211;28;20498;-44
2023/11/12 00:59:11;;;;;;;212.13;56.22;;;;;;;;;;5023119;28;20396;-43
2023/11/12 01:01:37;;;;;;;211.48;53.70;;;;;;;;;;5023228;28;20648;-44
2023/11/12 01:04:03;;;;;;;211.17;55.73;;;;;;;;;;5023771;28;20184;-44
2023/11/12 01:06:29;;;;;;;210.43;55.13;;;;;;;;;;5026873;28;20433;-43
2023/11/12 01:08:55;;;;;;;209.38;54.35;;;;;;;;;;5025863;28;20185;-44
2023/11/12 01:11:21;;;;;;;207.30;54.13;;;;;;;;;;5020215;28;20174;-43
2023/11/12 01:13:47;;;;;;;208.17;53.20;;;;;;;;;;5025280;28;20448;-44
2023/11/12 01:16:13;;;;;;;211.27;55.23;;;;;;;;;;5024527;28;20434;-44
2023/11/12 01:18:40;;;;;;;209.37;54.80;;;;;;;;;;5025498;28;20756;-44
2023/11/12 01:21:07;;;;;;;205.98;52.15;;;;;;;;;;5023884;28;20409;-44
2023/11/12 01:23:33;;;;;;;210.65;55.50;;;;;;;;;;5024766;28;20181;-44
2023/11/12 01:25:59;;;;;;;210.03;55.50;;;;;;;;;;5024133;28;20209;-43
2023/11/12 01:28:25;;;;;;;209.68;55.22;;;;;;;;;;5017995;28;20476;-44
2023/11/12 01:30:51;;;;;;;210.03;55.27;;;;;;;;;;5026033;28;20685;-44
2023/11/12 01:33:19;;;;;;;209.85;53.33;;;;;;;;;;5022693;28;20542;-44
2023/11/12 01:35:45;;;;;;;209.38;53.90;;;;;;;;;;5022820;28;20212;-44
2023/11/12 01:38:10;;;;;;;209.52;54.80;;;;;;;;;;5023646;28;20197;-44
2023/11/12 01:40:39;;;;;;;207.67;53.50;;;;;;;;;;5022925;28;20643;-43
2023/11/12 01:43:07;;;;;;;209.13;53.88;;;;;;;;;;5031693;28;20928;-43
2023/11/12 01:45:33;;;;;;;209.30;54.03;;;;;;;;;;5033416;28;20175;-44
2023/11/12 01:47:59;;;;;;;209.30;54.70;;;;;;;;;;5014602;28;20265;-44
2023/11/12 01:50:25;;;;;;;209.90;54.42;;;;;;;;;;5031425;28;20895;-43
2023/11/12 01:52:52;;;;;;;208.02;52.90;;;;;;;;;;5021189;28;20692;-44
2023/11/12 01:55:19;;;;;;;210.38;55.60;;;;;;;;;;5023111;28;20168;-44
2023/11/12 01:57:45;;;;;;;211.00;55.15;;;;;;;;;;5028819;28;20243;-43
2023/11/12 02:00:15;;;;;;;208.38;53.75;;;;;;;;;;5015493;28;20414;-44
2023/11/12 02:02:41;;;;;;;209.70;54.17;;;;;;;;;;5032871;28;20187;-43
2023/11/12 02:05:08;;;;;;;210.07;55.13;;;;;;;;;;5015986;28;20192;-44
2023/11/12 02:07:37;;;;;;;212.77;56.03;;;;;;;;;;5026187;28;20311;-44
2023/11/12 02:10:15;;;;;;;210.70;54.72;;;;;;;;;;5023704;28;20181;-44
2023/11/12 02:12:45;;;;;;;208.05;52.83;;;;;;;;;;5020796;28;20197;-44
2023/11/12 02:15:15;;;;;;;210.02;54.30;;;;;;;;;;5029917;28;20170;-44
2023/11/12 02:17:45;;;;;;;210.13;56.33;;;;;;;;;;5013564;28;20573;-45
2023/11/12 02:20:11;;;;;;;210.15;54.78;;;;;;;;;;4994242;28;20170;-44
2023/11/12 02:22:38;;;;;;;209.70;54.50;;;;;;;;;;5027316;28;20173;-44
2023/11/12 02:25:04;;;;;;;210.65;55.10;;;;;;;;;;5020998;28;20184;-44
2023/11/12 02:27:31;;;;;;;208.05;52.72;;;;;;;;;;5021810;28;20192;-44
2023/11/12 02:29:57;;;;;;;210.32;55.88;;;;;;;;;;5029277;28;20180;-44
2023/11/12 02:32:24;;;;;;;209.77;54.33;;;;;;;;;;5013617;28;20704;-44
2023/11/12 02:34:50;;;;;;;209.25;55.20;;;;;;;;;;5004260;28;20517;-43
2023/11/12 02:37:16;;;;;;;208.67;53.63;;;;;;;;;;5026627;28;20194;-44
2023/11/12 02:39:42;;;;;;;208.52;52.78;;;;;;;;;;5022075;28;20435;-43
2023/11/12 02:42:16;;;;;;;207.93;53.07;;;;;;;;;;5023324;28;20536;-44
2023/11/12 02:44:42;;;;;;;209.95;53.75;;;;;;;;;;5021779;28;20434;-44
2023/11/12 02:47:08;;;;;;;209.20;52.90;;;;;;;;;;5023173;28;20202;-44
2023/11/12 02:49:51;;;;;;;206.38;53.83;;;;;;;;;;5021657;28;20195;-43
2023/11/12 02:52:16;;;;;;;210.73;55.45;;;;;;;;;;5029024;28;20574;-44
2023/11/12 02:54:42;;;;;;;208.60;52.97;;;;;;;;;;5024954;28;20175;-43
2023/11/12 02:57:08;;;;;;;209.88;54.28;;;;;;;;;;5017855;28;20431;-44
2023/11/12 02:59:34;;;;;;;208.57;54.33;;;;;;;;;;5019777;28;20181;-44
2023/11/12 03:02:00;;;;;;;208.27;53.63;;;;;;;;;;5021973;28;20420;-43
2023/11/12 03:04:26;;;;;;;210.53;55.80;;;;;;;;;;5024725;28;20526;-43
2023/11/12 03:06:52;;;;;;;210.10;55.45;;;;;;;;;;5022006;28;20439;-43
2023/11/12 03:09:18;;;;;;;210.50;54.60;;;;;;;;;;5024419;28;20191;-43
2023/11/12 03:11:46;;;;;;;207.98;53.72;;;;;;;;;;5021270;28;20862;-44
2023/11/12 03:14:12;;;;;;;210.55;55.25;;;;;;;;;;5015398;28;20168;-44
2023/11/12 03:16:38;;;;;;;206.13;51.97;;;;;;;;;;5024085;28;20204;-43
2023/11/12 03:19:04;;;;;;;210.73;54.92;;;;;;;;;;5021219;28;20511;-44
2023/11/12 03:21:30;;;;;;;210.95;54.08;;;;;;;;;;5023435;28;20207;-43
2023/11/12 03:23:56;;;;;;;210.07;55.10;;;;;;;;;;5020766;28;20201;-44
2023/11/12 03:26:22;;;;;;;209.77;53.65;;;;;;;;;;5022283;28;20868;-44
2023/11/12 03:28:48;;;;;;;209.40;54.60;;;;;;;;;;5016646;28;20255;-44
2023/11/12 03:31:15;;;;;;;207.57;52.72;;;;;;;;;;5027338;28;20411;-44
2023/11/12 03:33:41;;;;;;;209.60;53.53;;;;;;;;;;5023423;28;20199;-43
2023/11/12 03:36:07;;;;;;;208.63;53.10;;;;;;;;;;5023882;28;20245;-44
2023/11/12 03:38:33;;;;;;;211.48;53.90;;;;;;;;;;5031526;28;20458;-44
2023/11/12 03:40:59;;;;;;;205.98;53.22;;;;;;;;;;5022577;28;20172;-43
2023/11/12 03:43:25;;;;;;;207.90;53.30;;;;;;;;;;5017887;28;20702;-44
2023/11/12 03:45:51;;;;;;;210.17;54.67;;;;;;;;;;5030362;28;20419;-43
2023/11/12 03:48:17;;;;;;;208.53;53.00;;;;;;;;;;5012410;28;20408;-43
2023/11/12 03:50:43;;;;;;;207.53;53.90;;;;;;;;;;5029700;28;20422;-44
2023/11/12 03:53:09;;;;;;;207.53;53.00;;;;;;;;;;5018977;28;20568;-43
2023/11/12 03:55:35;;;;;;;207.37;52.97;;;;;;;;;;5021512;28;20803;-44
2023/11/12 03:58:01;;;;;;;209.03;53.50;;;;;;;;;;5026857;28;20771;-44
2023/11/12 04:00:28;;;;;;;205.20;51.50;;;;;;;;;;5013103;28;20487;-44
2023/11/12 04:02:54;;;;;;;207.13;52.03;;;;;;;;;;5032272;28;20430;-44
2023/11/12 04:05:20;;;;;;;207.27;52.90;;;;;;;;;;5015084;28;20258;-44
2023/11/12 04:07:46;;;;;;;208.73;55.07;;;;;;;;;;5024432;28;20443;-44
2023/11/12 04:10:13;;;;;;;205.57;51.00;;;;;;;;;;5023167;28;20418;-44
2023/11/12 04:12:39;;;;;;;208.10;53.70;;;;;;;;;;5016601;28;20865;-44
2023/11/12 04:15:05;;;;;;;211.30;54.53;;;;;;;;;;5031122;28;20172;-44
2023/11/12 04:17:31;;;;;;;206.43;51.63;;;;;;;;;;5011959;28;20893;-43
2023/11/12 04:19:58;;;;;;;206.48;52.80;;;;;;;;;;5028574;28;20172;-44
2023/11/12 04:22:24;;;;;;;205.48;52.40;;;;;;;;;;5019369;28;20183;-44
2023/11/12 04:24:53;;;;;;;206.43;52.50;;;;;;;;;;5021595;28;20177;-44
2023/11/12 04:27:22;;;;;;;209.35;54.28;;;;;;;;;;5030679;28;20747;-43
2023/11/12 04:29:48;;;;;;;212.07;56.35;;;;;;;;;;5017060;28;20207;-44
2023/11/12 04:32:14;;;;;;;205.25;52.15;;;;;;;;;;5035722;28;20196;-43
2023/11/12 04:34:42;;;;;;;206.97;52.67;;;;;;;;;;5017611;28;20202;-44
2023/11/12 04:37:08;;;;;;;208.00;53.20;;;;;;;;;;5028687;28;20430;-44
2023/11/12 04:39:34;;;;;;;210.65;56.05;;;;;;;;;;5026202;28;20176;-44
2023/11/12 04:42:00;;;;;;;208.00;54.37;;;;;;;;;;5020770;28;20175;-43
2023/11/12 04:44:26;;;;;;;204.27;51.37;;;;;;;;;;5034913;28;20423;-44
2023/11/12 04:46:53;;;;;;;207.55;53.30;;;;;;;;;;5035749;28;20417;-44
2023/11/12 04:49:19;;;;;;;208.05;53.00;;;;;;;;;;5018025;28;20255;-43
2023/11/12 04:51:45;;;;;;;205.10;51.40;;;;;;;;;;5003438;28;20613;-44
2023/11/12 04:54:11;;;;;;;210.63;54.55;;;;;;;;;;5004200;28;20484;-44
2023/11/12 04:56:36;;;;;;;210.50;56.43;;;;;;;;;;5011069;28;20282;-44
2023/11/12 04:59:02;;;;;;;207.17;53.57;;;;;;;;;;4996192;28;20408;-44
2023/11/12 05:01:30;;;;;;;206.37;52.40;;;;;;;;;;5015531;28;20400;-44
2023/11/12 05:03:56;;;;;;;207.95;54.10;;;;;;;;;;4999218;28;20966;-44
2023/11/12 05:06:25;;;;;;;208.03;54.80;;;;;;;;;;5007547;28;20204;-44
2023/11/12 05:08:51;;;;;;;210.75;54.40;;;;;;;;;;5006892;28;20444;-44
2023/11/12 05:11:17;;;;;;;209.40;56.13;;;;;;;;;;5000181;28;20208;-44
2023/11/12 05:13:43;;;;;;;206.30;53.33;;;;;;;;;;5014800;28;20477;-44
2023/11/12 05:16:09;;;;;;;207.07;53.40;;;;;;;;;;4995627;28;20468;-44
2023/11/12 05:18:35;;;;;;;207.00;53.58;;;;;;;;;;5011127;28;20404;-44
2023/11/12 05:21:01;;;;;;;208.87;54.73;;;;;;;;;;5002852;28;20268;-44
2023/11/12 05:23:27;;;;;;;206.70;54.22;;;;;;;;;;5003118;28;20405;-44
2023/11/12 05:25:54;;;;;;;211.43;57.27;;;;;;;;;;5010980;28;20202;-44
2023/11/12 05:28:20;;;;;;;209.48;53.85;;;;;;;;;;4995216;28;20406;-44
2023/11/12 05:30:46;;;;;;;209.27;54.37;;;;;;;;;;5014971;28;20203;-44
2023/11/12 05:33:12;;;;;;;210.57;56.17;;;;;;;;;;5005538;28;20461;-44
2023/11/12 05:35:38;;;;;;;210.90;55.57;;;;;;;;;;5014205;28;20408;-44
2023/11/12 05:38:05;;;;;;;209.10;54.10;;;;;;;;;;5006187;28;20877;-44
2023/11/12 05:40:31;;;;;;;207.77;52.65;;;;;;;;;;4998631;28;20503;-44
2023/11/12 05:42:57;;;;;;;209.38;55.60;;;;;;;;;;5014867;28;20219;-44
2023/11/12 05:45:23;;;;;;;208.77;53.70;;;;;;;;;;4995448;28;20177;-44
2023/11/12 05:47:49;;;;;;;209.67;54.23;;;;;;;;;;5009960;28;20173;-44
2023/11/12 05:50:15;;;;;;;211.37;56.10;;;;;;;;;;5003392;28;20479;-43
2023/11/12 05:52:42;;;;;;;206.13;53.47;;;;;;;;;;5001950;28;20451;-44
2023/11/12 05:55:09;;;;;;;211.27;55.45;;;;;;;;;;5011039;28;20418;-44
2023/11/12 05:57:35;;;;;;;211.75;56.83;;;;;;;;;;4994727;28;20189;-44
2023/11/12 06:00:01;;;;;;;209.57;53.83;;;;;;;;;;5013902;28;20235;-44
2023/11/12 06:02:27;;;;;;;208.20;53.13;;;;;;;;;;4999461;28;20496;-44
2023/11/12 06:04:53;;;;;;;206.70;52.67;;;;;;;;;;5005642;28;20419;-44
2023/11/12 06:07:19;;;;;;;207.60;53.40;;;;;;;;;;5007091;28;20216;-44
2023/11/12 06:09:46;;;;;;;207.80;52.57;;;;;;;;;;4997345;28;20424;-44
2023/11/12 06:12:12;;;;;;;208.98;54.25;;;;;;;;;;5014022;28;20478;-44
2023/11/12 06:14:38;;;;;;;211.70;57.35;;;;;;;;;;4995470;28;20180;-44
2023/11/12 06:17:04;;;;;;;206.52;52.97;;;;;;;;;;5008296;28;20569;-44
2023/11/12 06:19:30;;;;;;;207.63;53.33;;;;;;;;;;5003268;28;20178;-44
2023/11/12 06:21:56;;;;;;;205.95;52.25;;;;;;;;;;5000549;28;20644;-43
2023/11/12 06:24:22;;;;;;;211.73;57.03;;;;;;;;;;5011335;28;20188;-44
2023/11/12 06:26:48;;;;;;;218.90;60.67;;;;;;;;;;4994878;28;20290;-44
2023/11/12 06:29:14;;;;;;;208.67;52.90;;;;;;;;;;5011698;28;20418;-44
2023/11/12 06:31:40;;;;;;;211.77;54.30;;;;;;;;;;4999265;28;20413;-42
2023/11/12 06:34:06;;;;;;;211.83;56.00;;;;;;;;;;5006909;28;20451;-44
2023/11/12 06:36:32;;;;;;;209.87;54.37;;;;;;;;;;5024826;28;20858;-44
2023/11/12 06:38:58;;;;;;;209.87;55.20;;;;;;;;;;5017869;28;20470;-44
2023/11/12 06:41:24;;;;;;;210.23;53.93;;;;;;;;;;5021216;28;20447;-43
2023/11/12 06:43:50;;;;;;;210.57;54.40;;;;;;;;;;5027681;28;20485;-44
2023/11/12 06:46:16;;;;;;;208.20;52.33;;;;;;;;;;5023412;28;20435;-43
2023/11/12 06:48:42;;;;;;;208.53;51.87;;;;;;;;;;5022394;28;20425;-44
2023/11/12 06:51:08;;;;;;;211.27;53.90;;;;;;;;;;5024580;28;20814;-43
2023/11/12 06:53:34;;;;;;;210.73;54.65;;;;;;;;;;5024395;28;20575;-43
2023/11/12 06:56:00;;;;;;;211.17;55.07;;;;;;;;;;5016484;28;20196;-43
2023/11/12 06:58:26;;;;;;;208.10;52.60;;;;;;;;;;5024118;28;20765;-44
2023/11/12 07:00:52;;;;;;;210.23;53.20;;;;;;;;;;5021960;28;20400;-43
2023/11/12 07:03:19;;;;;;;211.87;55.77;;;;;;;;;;5023370;28;20414;-43
2023/11/12 07:05:47;;;;;;;212.20;56.13;;;;;;;;;;5021150;28;20447;-43
2023/11/12 07:08:13;;;;;;;211.70;54.65;;;;;;;;;;5022330;28;20184;-43
2023/11/12 07:10:39;;;;;;;213.37;55.70;;;;;;;;;;5018397;28;20603;-43
2023/11/12 07:13:05;;;;;;;211.73;56.37;;;;;;;;;;5023108;28;20458;-44
2023/11/12 07:15:31;;;;;;;209.18;53.30;;;;;;;;;;5021923;28;20487;-44
2023/11/12 07:17:57;;;;;;;210.38;52.80;;;;;;;;;;5018976;28;20200;-44
2023/11/12 07:20:28;;;;;;;213.27;56.87;;;;;;;;;;5022398;28;20168;-43
2023/11/12 07:22:56;;;;;;;213.63;56.97;;;;;;;;;;5020629;28;20930;-44
2023/11/12 07:25:23;;;;;;;213.98;59.28;;;;;;;;;;5020748;28;20228;-44
2023/11/12 07:27:49;;;;;;;211.20;55.15;;;;;;;;;;5020114;28;20171;-43
2023/11/12 07:30:15;;;;;;;210.87;56.33;;;;;;;;;;5025497;28;20187;-43
2023/11/12 07:32:41;;;;;;;213.97;57.30;;;;;;;;;;5021420;28;20818;-43
2023/11/12 07:35:08;;;;;;;214.83;55.90;;;;;;;;;;5017197;28;20421;-43
2023/11/12 07:37:34;;;;;;;212.70;56.85;;;;;;;;;;5018837;28;20512;-43
2023/11/12 07:40:04;;;;;;;214.70;58.80;;;;;;;;;;5020411;28;20754;-43
2023/11/12 07:42:30;;;;;;;214.95;58.72;;;;;;;;;;5023704;28;20229;-43
2023/11/12 07:44:56;;;;;;;214.43;58.50;;;;;;;;;;5020811;28;20261;-43
2023/11/12 07:47:22;;;;;;;215.15;58.13;;;;;;;;;;5023266;28;20952;-43
2023/11/12 07:49:48;;;;;;;211.77;56.20;;;;;;;;;;5020864;28;20177;-43
2023/11/12 07:52:15;;;;;;;215.47;62.77;;;;;;;;;;5015520;28;20458;-43
2023/11/12 07:54:41;;;;;;;214.32;60.22;;;;;;;;;;5023506;28;20516;-43
2023/11/12 07:57:07;;;;;;;212.23;57.87;;;;;;;;;;5020071;28;20721;-43
2023/11/12 07:59:33;;;;;;;212.10;58.80;;;;;;;;;;5021910;28;20896;-43
2023/11/12 08:01:59;;;;;;;215.05;59.65;;;;;;;;;;5020158;28;20934;-43
2023/11/12 08:04:25;;;;;;;212.37;57.47;;;;;;;;;;5021663;28;20178;-43
2023/11/12 08:06:51;;;;;;;213.93;58.40;;;;;;;;;;5013667;28;20533;-43
2023/11/12 08:09:17;;;;;;;210.80;56.13;;;;;;;;;;5027192;28;20412;-43
2023/11/12 08:11:43;;;;;;;211.70;54.37;;;;;;;;;;5017153;28;20416;-44
2023/11/12 08:14:09;;;;;;;213.87;57.90;;;;;;;;;;5021216;28;20435;-43
2023/11/12 08:16:36;;;;;;;212.37;56.27;;;;;;;;;;5027324;28;20436;-43
2023/11/12 08:19:02;;;;;;;212.77;57.08;;;;;;;;;;5019813;28;20887;-44
2023/11/12 08:21:28;;;;;;;214.80;58.00;;;;;;;;;;5019916;28;20188;-44
2023/11/12 08:23:54;;;;;;;210.90;54.63;;;;;;;;;;5019811;28;20459;-43
2023/11/12 08:26:20;;;;;;;216.43;56.77;;;;;;;;;;5024851;28;20197;-43
2023/11/12 08:28:47;;;;;;;220.20;58.87;;;;;;;;;;5021293;28;20462;-44
2023/11/12 08:31:13;;;;;;;222.18;61.70;;;;;;;;;;5017046;28;20434;-45
2023/11/12 08:33:39;;;;;;;221.27;63.47;;;;;;;;;;5017746;28;20572;-43
2023/11/12 08:36:05;;;;;;;222.33;65.03;;;;;;;;;;5020091;28;20929;-43
2023/11/12 08:38:31;;;;;;;222.63;62.83;;;;;;;;;;5030189;28;20419;-43
2023/11/12 08:40:57;;;;;;;218.87;59.30;;;;;;;;;;5014364;28;20176;-43
2023/11/12 08:43:24;;;;;;;222.60;61.70;;;;;;;;;;5022823;28;20425;-43
2023/11/12 08:45:50;;;;;;;230.85;82.47;;;;;;;;;;5023410;28;20437;-43
2023/11/12 08:48:17;;;;;;;225.67;66.47;;;;;;;;;;5014808;28;20190;-43
2023/11/12 08:50:43;;;;;;;231.07;75.47;;;;;;;;;;5031137;28;20413;-43
2023/11/12 08:53:09;;;;;;;226.57;62.63;;;;;;;;;;5011162;28;20219;-44
2023/11/12 08:55:35;;;;;;;226.20;62.17;;;;;;;;;;5026874;28;20497;-44
2023/11/12 08:58:01;;;;;;;227.30;63.83;;;;;;;;;;5019330;28;20411;-43
2023/11/12 09:00:27;;;;;;;232.80;70.23;;;;;;;;;;5018608;28;20402;-44
2023/11/12 09:02:53;;;;;;;229.43;65.87;;;;;;;;;;5027776;28;21062;-43
2023/11/12 09:05:19;;;;;;;231.77;68.67;;;;;;;;;;5011608;28;20879;-43
2023/11/12 09:07:45;;;;;;;237.27;70.50;;;;;;;;;;5029959;28;20918;-43
2023/11/12 09:10:11;;;;;;;239.20;71.43;;;;;;;;;;5015982;28;20446;-43
2023/11/12 09:12:37;;;;;;;244.23;74.17;;;;;;;;;;5024266;28;20542;-43
2023/11/12 09:15:04;;;;;;;243.47;78.73;;;;;;;;;;5027524;28;20407;-44
2023/11/12 09:17:30;;;;;;;251.67;88.97;;;;;;;;;;5016736;28;20461;-43
2023/11/12 09:19:56;;;;;;;248.43;85.10;;;;;;;;;;5034594;28;20411;-43
2023/11/12 09:22:22;;;;;;;254.33;88.87;;;;;;;;;;5014813;28;20450;-44
2023/11/12 09:24:48;;;;;;;255.90;90.17;;;;;;;;;;5000220;28;20461;-44
2023/11/12 09:27:14;;;;;;;257.00;92.07;;;;;;;;;;5005035;28;20445;-44
2023/11/12 09:29:41;;;;;;;260.43;99.03;;;;;;;;;;5007935;28;20426;-44
2023/11/12 09:32:06;;;;;;;254.87;94.17;;;;;;;;;;4997419;28;21004;-44
2023/11/12 09:34:32;;;;;;;253.80;92.93;;;;;;;;;;5014488;28;20404;-44
2023/11/12 09:36:58;;;;;;;262.90;98.23;;;;;;;;;;5013660;28;20818;-44
2023/11/12 09:39:24;;;;;;;260.97;101.53;;;;;;;;;;5000214;28;20431;-45
2023/11/12 09:41:52;;;;;;;254.33;96.80;;;;;;;;;;5004606;28;20629;-44
2023/11/12 09:44:18;;;;;;;255.03;98.93;;;;;;;;;;5008035;28;20491;-44
2023/11/12 09:46:48;;;;;;;255.83;98.97;;;;;;;;;;4996428;28;20436;-44
2023/11/12 09:49:15;;;;;;;254.00;96.47;;;;;;;;;;5014040;28;20409;-44
2023/11/12 09:51:42;;;;;;;254.47;97.47;;;;;;;;;;4993957;28;20413;-44
2023/11/12 09:54:08;;;;;;;252.37;94.77;;;;;;;;;;5008576;28;20426;-45
2023/11/12 09:56:35;;;;;;;256.10;100.10;;;;;;;;;;5003526;28;20435;-44
2023/11/12 09:59:01;;;;;;;253.57;98.93;;;;;;;;;;5000620;28;20419;-44
2023/11/12 10:01:27;;;;;;;257.40;104.37;;;;;;;;;;5011597;28;20762;-44
2023/11/12 10:03:53;;;;;;;253.90;97.90;;;;;;;;;;4994423;28;20519;-44
2023/11/12 10:06:22;;;;;;;257.73;102.87;;;;;;;;;;5012281;28;20942;-44
2023/11/12 10:08:50;;;;;;;255.87;102.30;;;;;;;;;;4999142;28;20424;-44
2023/11/12 10:11:18;;;;;;;255.60;99.63;;;;;;;;;;5000170;28;20423;-44
2023/11/12 10:13:45;;;;;;;258.50;103.70;;;;;;;;;;5013045;28;20573;-44
2023/11/12 10:16:23;;;;;;;257.27;104.97;;;;;;;;;;5010326;28;20490;-44
2023/11/12 10:18:50;;;;;;;256.23;104.33;;;;;;;;;;5002461;28;20411;-44
2023/11/12 10:21:16;;;;;;;258.27;106.87;;;;;;;;;;4993828;28;20776;-44
2023/11/12 10:23:42;;;;;;;263.57;109.63;;;;;;;;;;5008964;28;20411;-45
2023/11/12 10:26:12;;;;;;;261.07;110.57;;;;;;;;;;4999389;28;20583;-44
2023/11/12 10:28:38;;;;;;;260.67;108.17;;;;;;;;;;5001500;28;20426;-44
2023/11/12 10:31:07;;;;;;;261.90;103.03;;;;;;;;;;5008529;28;20420;-44
2023/11/12 10:33:34;;;;;;;267.83;107.10;;;;;;;;;;5001359;28;20914;-44
2023/11/12 10:36:07;;;;;;;268.00;108.53;;;;;;;;;;5013308;28;20456;-45
2023/11/12 10:38:47;;;;;;;266.53;111.00;;;;;;;;;;4995028;28;20541;-44
2023/11/12 10:41:13;;;;;;;264.27;106.33;;;;;;;;;;5008947;28;20419;-44
2023/11/12 10:43:40;;;;;;;265.97;110.23;;;;;;;;;;5001773;28;20511;-44
2023/11/12 10:46:06;;;;;;;263.93;108.30;;;;;;;;;;5001115;28;20469;-44
2023/11/12 10:48:39;;;;;;;263.30;108.70;;;;;;;;;;5009260;28;20420;-45
2023/11/12 10:51:10;;;;;;;271.50;112.93;;;;;;;;;;4994472;28;20837;-44
2023/11/12 10:53:37;;;;;;;264.60;112.20;;;;;;;;;;5006759;28;20529;-44
2023/11/12 10:56:05;;;;;;;263.77;108.73;;;;;;;;;;5010715;28;20458;-44
2023/11/12 10:58:31;;;;;;;262.20;105.90;;;;;;;;;;5009793;28;20488;-45
2023/11/12 11:00:58;;;;;;;259.57;106.13;;;;;;;;;;5002464;28;20408;-45
2023/11/12 11:03:28;;;;;;;260.07;103.80;;;;;;;;;;4997084;28;20452;-44
2023/11/12 11:05:55;;;;;;;260.37;105.93;;;;;;;;;;5010804;28;20953;-44
2023/11/12 11:08:22;;;;;;;256.60;100.20;;;;;;;;;;4996002;28;20821;-44
2023/11/12 11:10:48;;;;;;;258.67;107.83;;;;;;;;;;5024738;28;20414;-44
2023/11/12 11:13:14;;;;;;;258.43;104.23;;;;;;;;;;5022960;28;20450;-44
2023/11/12 11:15:45;;;;;;;260.43;108.97;;;;;;;;;;5022123;28;20412;-44
2023/11/12 11:18:29;;;;;;;255.80;103.00;;;;;;;;;;5024338;28;20482;-44
2023/11/12 11:21:15;;;;;;;256.47;102.93;;;;;;;;;;5023749;28;20420;-45
2023/11/12 11:23:45;;;;;;;258.00;103.77;;;;;;;;;;5015749;28;20407;-44
2023/11/12 11:26:30;;;;;;;260.60;107.90;;;;;;;;;;5026034;28;20429;-44
2023/11/12 11:29:07;;;;;;;256.67;105.17;;;;;;;;;;5024420;28;20413;-44
2023/11/12 11:31:36;;;;;;;260.07;113.47;;;;;;;;;;5012730;28;20410;-44
2023/11/12 11:34:03;;;;;;;254.10;102.33;;;;;;;;;;5016052;28;20505;-44
2023/11/12 11:36:29;;;;;;;256.93;105.97;;;;;;;;;;5023503;28;20438;-44
2023/11/12 11:39:11;;;;;;;256.03;104.77;;;;;;;;;;5021670;28;20433;-44
2023/11/12 11:41:42;;;;;;;257.13;104.70;;;;;;;;;;5014020;28;20403;-44
2023/11/12 11:44:27;;;;;;;258.17;103.90;;;;;;;;;;5021621;28;20413;-44
2023/11/12 11:47:05;;;;;;;251.83;96.37;;;;;;;;;;5016180;28;20492;-44
2023/11/12 11:49:32;;;;;;;257.97;103.27;;;;;;;;;;5013272;28;20414;-45
2023/11/12 11:52:01;;;;;;;254.13;99.70;;;;;;;;;;5020449;28;20910;-44
2023/11/12 11:54:28;;;;;;;256.03;102.57;;;;;;;;;;5025475;28;20418;-45
2023/11/12 11:56:56;;;;;;;257.43;103.13;;;;;;;;;;5023660;28;20941;-44
2023/11/12 11:59:24;;;;;;;256.40;101.67;;;;;;;;;;5017911;28;20417;-45
2023/11/12 12:01:52;;;;;;;254.53;101.53;;;;;;;;;;5017395;28;20454;-44
2023/11/12 12:04:18;;;;;;;255.47;102.07;;;;;;;;;;5026832;28;20806;-44
2023/11/12 12:06:45;;;;;;;256.77;101.87;;;;;;;;;;5022800;28;20426;-44
2023/11/12 12:09:16;;;;;;;251.30;95.33;;;;;;;;;;5021572;28;20414;-44
2023/11/12 12:11:43;;;;;;;249.87;91.60;;;;;;;;;;5021497;28;20782;-43
2023/11/12 12:14:11;;;;;;;249.03;90.30;;;;;;;;;;5022721;28;20420;-44
2023/11/12 12:16:40;;;;;;;250.10;91.37;;;;;;;;;;5017987;28;20424;-44
2023/11/12 12:19:08;;;;;;;248.07;90.13;;;;;;;;;;5021997;28;20498;-44
2023/11/12 12:21:36;;;;;;;249.50;91.07;;;;;;;;;;5022524;28;20920;-44
2023/11/12 12:24:03;;;;;;;245.23;87.47;;;;;;;;;;5019481;28;20990;-44
2023/11/12 12:26:29;;;;;;;244.43;83.80;;;;;;;;;;5021597;28;20517;-44
2023/11/12 12:28:55;;;;;;;246.07;88.83;;;;;;;;;;5016546;28;20446;-44
2023/11/12 12:31:22;;;;;;;250.40;89.63;;;;;;;;;;5020590;28;20445;-44
2023/11/12 12:34:06;;;;;;;245.00;85.67;;;;;;;;;;5019102;28;20961;-44
2023/11/12 12:36:36;;;;;;;243.70;86.47;;;;;;;;;;5014931;28;20526;-45
2023/11/12 12:39:09;;;;;;;247.47;86.80;;;;;;;;;;5006143;28;20445;-45
2023/11/12 12:41:35;;;;;;;245.80;87.30;;;;;;;;;;5019640;28;20878;-44
2023/11/12 12:44:01;;;;;;;242.80;85.30;;;;;;;;;;5016069;28;20431;-44
2023/11/12 12:46:46;;;;;;;251.40;88.13;;;;;;;;;;5023287;28;20436;-45
2023/11/12 12:49:17;;;;;;;245.90;84.90;;;;;;;;;;5024605;28;20422;-44
2023/11/12 12:51:52;;;;;;;245.30;85.07;;;;;;;;;;5019426;28;20411;-44
2023/11/12 12:54:19;;;;;;;244.03;84.57;;;;;;;;;;5015178;28;20445;-44
2023/11/12 12:56:45;;;;;;;243.63;83.03;;;;;;;;;;5014758;28;20414;-44
2023/11/12 12:59:10;;;;;;;243.23;84.17;;;;;;;;;;5015017;28;20414;-44
2023/11/12 13:01:36;;;;;;;243.47;83.70;;;;;;;;;;5015206;28;20781;-45
2023/11/12 13:04:02;;;;;;;241.10;81.23;;;;;;;;;;5015028;28;20779;-44
2023/11/12 13:06:28;;;;;;;241.57;79.70;;;;;;;;;;5015048;28;21018;-44
2023/11/12 13:08:56;;;;;;;244.80;83.03;;;;;;;;;;5014211;28;20406;-44
2023/11/12 13:11:25;;;;;;;239.20;81.73;;;;;;;;;;5034020;28;20414;-44
2023/11/12 13:13:54;;;;;;;238.67;80.27;;;;;;;;;;5018820;28;20992;-44
2023/11/12 13:16:23;;;;;;;241.03;81.97;;;;;;;;;;5026331;28;20789;-44
2023/11/12 13:18:51;;;;;;;239.17;79.77;;;;;;;;;;5026111;28;20508;-45
2023/11/12 13:21:19;;;;;;;240.50;80.50;;;;;;;;;;5014480;28;20426;-44
2023/11/12 13:23:45;;;;;;;243.97;83.87;;;;;;;;;;5014101;28;20910;-45
2023/11/12 13:26:15;;;;;;;246.43;85.33;;;;;;;;;;4995118;28;20471;-45
2023/11/12 13:28:42;;;;;;;247.70;86.27;;;;;;;;;;5011316;28;20436;-44
2023/11/12 13:31:08;;;;;;;247.33;86.07;;;;;;;;;;5001717;28;20416;-44
2023/11/12 13:33:34;;;;;;;243.10;83.57;;;;;;;;;;5003460;28;20469;-44
2023/11/12 13:36:02;;;;;;;242.13;82.40;;;;;;;;;;5009593;28;20427;-44
2023/11/12 13:38:28;;;;;;;247.53;91.70;;;;;;;;;;4995261;28;20911;-44
2023/11/12 13:40:54;;;;;;;242.80;82.87;;;;;;;;;;5014354;28;20407;-44
2023/11/12 13:43:21;;;;;;;245.60;84.00;;;;;;;;;;4997621;28;20483;-44
2023/11/12 13:45:48;;;;;;;242.47;80.73;;;;;;;;;;5007103;28;20453;-44
2023/11/12 13:48:14;;;;;;;245.37;81.27;;;;;;;;;;5012470;28;20418;-44
2023/11/12 13:50:40;;;;;;;244.50;81.20;;;;;;;;;;5009421;28;20420;-45
2023/11/12 13:53:11;;;;;;;244.43;83.47;;;;;;;;;;4994921;28;20997;-44
2023/11/12 13:55:40;;;;;;;242.30;78.87;;;;;;;;;;5013773;28;20407;-44
2023/11/12 13:58:10;;;;;;;241.30;79.97;;;;;;;;;;4995481;28;20459;-44
2023/11/12 14:00:36;;;;;;;244.83;83.70;;;;;;;;;;5008008;28;20421;-44
2023/11/12 14:03:02;;;;;;;239.23;76.33;;;;;;;;;;5004269;28;20424;-45